createdAt,value
2022-09-11T00:01:18.771Z,0.15
2022-09-11T00:03:47.991Z,0.10
2022-09-11T00:06:29.355Z,0.20
2022-09-11T00:09:01.165Z,0.10
2022-09-11T00:11:30.583Z,0.30
2022-09-11T00:13:58.875Z,0.10
2022-09-11T00:16:28.017Z,0.73
2022-09-11T00:18:57.492Z,0.05
2022-09-11T00:21:25.887Z,0.28
2022-09-11T00:23:54.152Z,0.10
2022-09-11T00:26:24.715Z,0.03
2022-09-11T00:28:53.953Z,0.00
2022-09-11T00:31:24.346Z,0.10
2022-09-11T00:33:52.728Z,0.80
2022-09-11T00:36:22.239Z,0.10
2022-09-11T00:38:50.739Z,0.10
2022-09-11T00:41:20.104Z,0.20
2022-09-11T00:43:57.230Z,0.08
2022-09-11T00:46:26.462Z,0.30
2022-09-11T00:48:57.177Z,0.10
2022-09-11T00:51:27.688Z,0.30
2022-09-11T00:53:57.487Z,0.17
2022-09-11T00:56:28.899Z,0.30
2022-09-11T00:58:59.037Z,0.10
2022-09-11T01:01:27.351Z,0.25
2022-09-11T01:03:56.234Z,0.20
2022-09-11T01:06:25.125Z,0.00
2022-09-11T01:08:53.371Z,0.00
2022-09-11T01:11:28.715Z,0.55
2022-09-11T01:14:01.790Z,0.20
2022-09-11T01:16:35.461Z,0.10
2022-09-11T01:19:08.685Z,0.20
2022-09-11T01:21:57.661Z,0.10
2022-09-11T01:24:33.278Z,0.30
2022-09-11T01:27:11.011Z,0.38
2022-09-11T01:29:44.647Z,0.20
2022-09-11T01:32:16.554Z,0.00
2022-09-11T01:34:47.572Z,0.22
2022-09-11T01:37:18.369Z,0.22
2022-09-11T01:39:48.506Z,0.20
2022-09-11T01:42:23.061Z,0.10
2022-09-11T01:44:54.745Z,0.25
2022-09-11T01:47:23.775Z,0.20
2022-09-11T01:49:52.765Z,0.10
2022-09-11T01:52:22.035Z,0.20
2022-09-11T01:54:52.435Z,0.13
2022-09-11T01:57:24.926Z,0.20
2022-09-11T01:59:56.498Z,0.43
2022-09-11T02:02:28.345Z,0.20
2022-09-11T02:05:01.116Z,0.32
2022-09-11T02:07:33.007Z,0.13
2022-09-11T02:10:02.558Z,0.30
2022-09-11T02:12:35.705Z,0.22
2022-09-11T02:15:06.781Z,0.20
2022-09-11T02:17:37.745Z,0.10
2022-09-11T02:20:06.866Z,0.50
2022-09-11T02:22:36.296Z,0.40
2022-09-11T02:25:05.592Z,0.20
2022-09-11T02:27:33.941Z,0.00
2022-09-11T02:30:02.633Z,0.20
2022-09-11T02:32:33.462Z,0.10
2022-09-11T02:35:01.954Z,0.00
2022-09-11T02:37:35.121Z,0.10
2022-09-11T02:40:20.587Z,0.10
2022-09-11T02:45:21.765Z,0.10
2022-09-11T02:47:57.326Z,0.00
2022-09-11T02:50:30.410Z,0.20
2022-09-11T02:53:02.547Z,0.43
2022-09-11T02:55:35.832Z,0.10
2022-09-11T02:58:06.111Z,0.25
2022-09-11T03:00:35.277Z,0.20
2022-09-11T03:03:05.361Z,0.17
2022-09-11T03:05:33.645Z,0.30
2022-09-11T03:08:04.398Z,0.20
2022-09-11T03:10:32.705Z,0.10
2022-09-11T03:13:00.955Z,0.30
2022-09-11T03:15:29.228Z,0.20
2022-09-11T03:17:57.859Z,0.20
2022-09-11T03:20:27.478Z,0.38
2022-09-11T03:22:55.745Z,0.28
2022-09-11T03:25:28.178Z,0.20
2022-09-11T03:27:56.428Z,0.35
2022-09-11T03:30:24.687Z,0.30
2022-09-11T03:32:53.223Z,0.20
2022-09-11T03:35:21.799Z,0.10
2022-09-11T03:37:51.452Z,0.30
2022-09-11T03:40:20.228Z,0.17
2022-09-11T03:42:48.505Z,0.10
2022-09-11T03:45:16.873Z,0.20
2022-09-11T03:47:45.142Z,0.20
2022-09-11T03:50:13.945Z,0.20
2022-09-11T03:52:43.366Z,0.10
2022-09-11T03:55:13.132Z,0.05
2022-09-11T03:57:41.415Z,0.20
2022-09-11T04:00:11.012Z,0.63
2022-09-11T04:02:39.329Z,0.00
2022-09-11T04:05:08.115Z,0.15
2022-09-11T04:07:36.403Z,0.30
2022-09-11T04:10:04.713Z,0.10
2022-09-11T04:12:34.365Z,0.17
2022-09-11T04:15:02.825Z,0.13
2022-09-11T04:17:31.188Z,0.32
2022-09-11T04:19:59.415Z,0.47
2022-09-11T04:22:27.903Z,0.28
2022-09-11T04:24:57.397Z,0.20
2022-09-11T04:27:27.122Z,0.30
2022-09-11T04:29:56.753Z,0.13
2022-09-11T04:32:24.985Z,0.28
2022-09-11T04:34:54.142Z,0.20
2022-09-11T04:37:22.379Z,0.20
2022-09-11T04:39:50.660Z,0.30
2022-09-11T04:42:18.917Z,0.20
2022-09-11T04:44:47.830Z,0.30
2022-09-11T04:47:17.451Z,0.40
2022-09-11T04:49:46.765Z,0.20
2022-09-11T04:52:15.321Z,0.20
2022-09-11T04:54:43.583Z,0.10
2022-09-11T04:57:11.820Z,0.45
2022-09-11T04:59:40.052Z,0.30
2022-09-11T05:02:08.367Z,1.15
2022-09-11T05:04:38.043Z,0.00
2022-09-11T05:07:06.995Z,0.43
2022-09-11T05:09:35.569Z,0.17
2022-09-11T05:12:04.113Z,0.22
2022-09-11T05:14:32.957Z,0.10
2022-09-11T05:17:01.437Z,0.20
2022-09-11T05:19:29.706Z,0.10
2022-09-11T05:21:59.497Z,0.13
2022-09-11T05:24:27.737Z,0.20
2022-09-11T05:26:56.766Z,0.00
2022-09-11T05:29:30.391Z,0.40
2022-09-11T05:32:00.405Z,0.10
2022-09-11T05:34:28.713Z,0.30
2022-09-11T05:36:57.620Z,0.52
2022-09-11T05:39:27.307Z,0.45
2022-09-11T05:41:56.331Z,0.28
2022-09-11T05:44:24.603Z,0.28
2022-09-11T05:46:52.862Z,0.30
2022-09-11T05:49:21.745Z,0.25
2022-09-11T05:51:50.005Z,0.10
2022-09-11T05:54:18.263Z,0.38
2022-09-11T05:56:47.906Z,0.40
2022-09-11T05:59:16.314Z,0.13
2022-09-11T06:01:44.794Z,0.15
2022-09-11T06:04:13.537Z,0.22
2022-09-11T06:06:41.805Z,0.40
2022-09-11T06:09:10.078Z,0.20
2022-09-11T06:11:38.386Z,0.20
2022-09-11T06:14:08.874Z,0.70
2022-09-11T06:16:37.488Z,0.30
2022-09-11T06:19:06.007Z,0.30
2022-09-11T06:21:34.283Z,0.30
2022-09-11T06:24:02.650Z,0.28
2022-09-11T06:26:31.020Z,0.08
2022-09-11T06:28:59.304Z,0.30
2022-09-11T06:31:31.967Z,0.10
2022-09-11T06:34:00.493Z,0.20
2022-09-11T06:36:30.042Z,0.30
2022-09-11T06:38:59.366Z,0.35
2022-09-11T06:41:28.581Z,0.05
2022-09-11T06:43:56.962Z,0.30
2022-09-11T06:46:32.829Z,0.47
2022-09-11T06:49:01.289Z,0.20
2022-09-11T06:51:29.696Z,0.20
2022-09-11T06:53:59.330Z,0.20
2022-09-11T06:56:33.630Z,0.20
2022-09-11T06:59:02.040Z,0.20
2022-09-11T07:01:30.478Z,0.30
2022-09-11T07:04:02.063Z,0.22
2022-09-11T07:06:35.052Z,0.25
2022-09-11T07:09:03.567Z,0.10
2022-09-11T07:11:32.943Z,0.20
2022-09-11T07:14:02.729Z,0.30
2022-09-11T07:16:39.988Z,0.30
2022-09-11T07:19:10.653Z,0.13
2022-09-11T07:21:38.931Z,0.38
2022-09-11T07:24:07.428Z,0.30
2022-09-11T07:26:36.353Z,0.20
2022-09-11T07:29:04.627Z,0.60
2022-09-11T07:31:34.456Z,0.38
2022-09-11T07:34:03.245Z,0.28
2022-09-11T07:36:34.121Z,0.50
2022-09-11T07:39:03.556Z,0.40
2022-09-11T07:41:44.159Z,0.30
2022-09-11T07:44:12.466Z,0.25
2022-09-11T07:46:41.501Z,0.35
2022-09-11T07:49:10.192Z,0.32
2022-09-11T07:51:40.407Z,0.40
2022-09-11T07:54:09.122Z,0.28
2022-09-11T07:56:37.405Z,0.45
2022-09-11T07:59:08.817Z,0.20
2022-09-11T08:01:37.501Z,0.40
2022-09-11T08:04:07.132Z,0.50
2022-09-11T08:06:45.897Z,0.50
2022-09-11T08:09:15.603Z,0.45
2022-09-11T08:11:45.850Z,0.40
2022-09-11T08:14:15.210Z,0.70
2022-09-11T08:16:43.981Z,0.40
2022-09-11T08:19:16.512Z,0.57
2022-09-11T08:21:47.723Z,0.57
2022-09-11T08:24:17.017Z,0.30
2022-09-11T08:26:48.810Z,0.47
2022-09-11T08:29:18.296Z,0.35
2022-09-11T08:31:46.750Z,0.77
2022-09-11T08:34:15.473Z,0.60
2022-09-11T08:36:43.793Z,0.22
2022-09-11T08:39:13.446Z,0.60
2022-09-11T08:41:48.168Z,0.40
2022-09-11T08:44:23.342Z,0.45
2022-09-11T08:46:54.851Z,0.35
2022-09-11T08:49:27.403Z,0.30
2022-09-11T08:51:58.269Z,0.60
2022-09-11T08:54:29.406Z,0.30
2022-09-11T08:57:02.120Z,0.20
2022-09-11T08:59:34.390Z,0.50
2022-09-11T09:02:09.593Z,0.30
2022-09-11T09:04:42.159Z,0.50
2022-09-11T09:07:14.169Z,0.40
2022-09-11T09:09:46.235Z,0.57
2022-09-11T09:12:17.524Z,0.30
2022-09-11T09:15:00.713Z,0.43
2022-09-11T09:17:31.417Z,0.60
2022-09-11T09:20:01.591Z,0.52
2022-09-11T09:22:33.543Z,0.73
2022-09-11T09:25:06.914Z,0.80
2022-09-11T09:27:36.301Z,0.35
2022-09-11T09:30:06.575Z,0.70
2022-09-11T09:32:36.868Z,0.32
2022-09-11T09:35:09.576Z,0.70
2022-09-11T09:37:38.134Z,0.55
2022-09-11T09:40:11.139Z,0.35
2022-09-11T09:43:02.117Z,0.55
2022-09-11T09:45:41.028Z,0.47
2022-09-11T09:48:10.627Z,0.73
2022-09-11T09:50:40.597Z,0.70
2022-09-11T09:53:13.728Z,0.77
2022-09-11T09:55:44.201Z,0.63
2022-09-11T09:58:12.573Z,0.60
2022-09-11T10:00:41.739Z,0.60
2022-09-11T10:03:19.120Z,0.60
2022-09-11T10:05:47.758Z,0.55
2022-09-11T10:08:26.608Z,0.93
2022-09-11T10:10:58.216Z,0.57
2022-09-11T10:13:28.310Z,1.13
2022-09-11T10:15:59.723Z,1.00
2022-09-11T10:18:38.496Z,0.50
2022-09-11T10:21:29.437Z,0.80
2022-09-11T10:23:58.554Z,0.60
2022-09-11T10:26:30.666Z,0.60
2022-09-11T10:29:01.259Z,0.70
2022-09-11T10:31:30.181Z,1.08
2022-09-11T10:34:00.013Z,1.33
2022-09-11T10:36:29.240Z,0.55
2022-09-11T10:38:58.286Z,0.80
2022-09-11T10:41:34.809Z,0.70
2022-09-11T10:44:04.107Z,0.70
2022-09-11T10:46:40.865Z,0.80
2022-09-11T10:49:11.049Z,0.57
2022-09-11T10:51:43.092Z,0.82
2022-09-11T10:54:23.252Z,1.00
2022-09-11T10:57:05.347Z,0.82
2022-09-11T10:59:39.426Z,0.85
2022-09-11T11:02:17.862Z,0.80
2022-09-11T11:04:46.685Z,1.15
2022-09-11T11:07:18.735Z,0.50
2022-09-11T11:09:52.674Z,0.68
2022-09-11T11:12:32.674Z,0.60
2022-09-11T11:15:34.313Z,0.60
2022-09-11T11:18:22.012Z,0.60
2022-09-11T11:20:55.431Z,0.85
2022-09-11T11:23:41.375Z,0.98
2022-09-11T11:26:27.281Z,0.77
2022-09-11T11:29:09.751Z,0.40
2022-09-11T11:31:43.768Z,0.70
2022-09-11T11:34:18.635Z,0.70
2022-09-11T11:36:48.363Z,0.85
2022-09-11T11:39:20.609Z,0.70
2022-09-11T11:41:51.899Z,0.30
2022-09-11T11:44:29.196Z,0.50
2022-09-11T11:46:58.801Z,0.40
2022-09-11T11:49:31.425Z,0.22
2022-09-11T11:52:04.126Z,0.30
2022-09-11T11:54:36.769Z,0.20
2022-09-11T11:57:09.764Z,0.17
2022-09-11T11:59:43.745Z,0.30
2022-09-11T12:02:18.697Z,0.28
2022-09-11T12:07:17.263Z,0.20
2022-09-11T12:09:50.147Z,0.47
2022-09-11T12:15:10.560Z,0.28
2022-09-11T12:17:40.222Z,0.82
2022-09-11T12:20:32.513Z,0.47
2022-09-11T12:23:00.830Z,0.30
2022-09-11T12:25:48.185Z,0.35
2022-09-11T12:28:23.515Z,0.35
2022-09-11T12:31:01.465Z,0.45
2022-09-11T12:33:50.826Z,0.32
2022-09-11T12:39:39.086Z,0.45
2022-09-11T12:42:22.934Z,0.45
2022-09-11T12:45:00.722Z,0.60
2022-09-11T12:47:35.302Z,0.40
2022-09-11T12:50:10.381Z,0.40
2022-09-11T12:52:42.779Z,0.50
2022-09-11T12:55:24.648Z,0.40
2022-09-11T12:57:53.056Z,0.40
2022-09-11T13:00:25.440Z,0.32
2022-09-11T13:02:56.879Z,0.45
2022-09-11T13:05:26.758Z,0.40
2022-09-11T13:07:56.757Z,0.57
2022-09-11T13:10:30.470Z,0.35
2022-09-11T13:12:59.733Z,0.30
2022-09-11T13:15:51.944Z,0.38
2022-09-11T13:18:27.286Z,0.47
2022-09-11T13:21:04.591Z,0.50
2022-09-11T13:23:32.857Z,0.20
2022-09-11T13:26:01.547Z,0.20
2022-09-11T13:28:31.717Z,0.30
2022-09-11T13:31:02.339Z,0.45
2022-09-11T13:33:32.890Z,0.40
2022-09-11T13:36:02.566Z,0.40
2022-09-11T13:38:32.429Z,0.52
2022-09-11T13:41:03.923Z,0.40
2022-09-11T13:43:35.694Z,0.30
2022-09-11T13:46:23.308Z,0.40
2022-09-11T13:48:54.625Z,0.47
2022-09-11T13:54:55.866Z,0.50
2022-09-11T13:57:25.084Z,0.57
2022-09-11T13:59:56.925Z,0.40
2022-09-11T14:02:41.819Z,0.40
2022-09-11T14:05:13.802Z,0.73
2022-09-11T14:07:50.954Z,0.63
2022-09-11T14:13:53.317Z,0.60
2022-09-11T14:16:24.118Z,0.30
2022-09-11T14:18:53.573Z,0.40
2022-09-11T14:21:24.868Z,0.28
2022-09-11T14:23:53.905Z,0.70
2022-09-11T14:26:24.325Z,0.30
2022-09-11T14:29:03.597Z,0.25
2022-09-11T14:31:36.710Z,0.25
2022-09-11T14:34:12.332Z,0.40
2022-09-11T14:36:44.162Z,0.47
2022-09-11T14:39:14.683Z,0.32
2022-09-11T14:41:44.039Z,0.22
2022-09-11T14:44:14.007Z,0.30
2022-09-11T14:46:43.110Z,0.40
2022-09-11T14:49:12.849Z,0.30
2022-09-11T14:51:43.944Z,0.40
2022-09-11T14:54:15.954Z,0.50
2022-09-11T14:56:45.125Z,0.38
2022-09-11T14:59:14.007Z,0.60
2022-09-11T15:01:43.269Z,0.35
2022-09-11T15:04:14.199Z,0.60
2022-09-11T15:06:43.831Z,0.73
2022-09-11T15:09:12.094Z,0.45
2022-09-11T15:11:41.676Z,0.63
2022-09-11T15:14:23.344Z,0.50
2022-09-11T15:16:51.849Z,0.32
2022-09-11T15:19:20.151Z,0.40
2022-09-11T15:21:49.940Z,0.40
2022-09-11T15:24:18.181Z,0.68
2022-09-11T15:26:47.877Z,0.40
2022-09-11T15:29:16.120Z,0.45
2022-09-11T15:31:44.398Z,0.70
2022-09-11T15:34:12.872Z,0.50
2022-09-11T15:36:41.541Z,0.55
2022-09-11T15:39:14.012Z,0.57
2022-09-11T15:41:42.763Z,0.50
2022-09-11T15:44:11.644Z,0.52
2022-09-11T15:46:39.962Z,0.60
2022-09-11T15:49:08.203Z,0.70
2022-09-11T15:51:36.582Z,0.50
2022-09-11T15:54:04.871Z,0.60
2022-09-11T15:56:36.065Z,0.70
2022-09-11T15:59:04.556Z,0.57
2022-09-11T16:01:33.632Z,0.60
2022-09-11T16:04:03.092Z,0.50
2022-09-11T16:06:32.930Z,0.55
2022-09-11T16:09:02.793Z,0.65
2022-09-11T16:11:31.839Z,0.57
2022-09-11T16:14:01.953Z,0.80
2022-09-11T16:16:30.582Z,0.75
2022-09-11T16:19:01.639Z,0.40
2022-09-11T16:21:30.546Z,0.80
2022-09-11T16:24:01.576Z,0.52
2022-09-11T16:26:31.588Z,0.60
2022-09-11T16:29:02.133Z,0.77
2022-09-11T16:31:30.490Z,0.65
2022-09-11T16:33:59.066Z,0.68
2022-09-11T16:36:30.342Z,0.57
2022-09-11T16:38:58.946Z,0.63
2022-09-11T16:41:27.241Z,0.50
2022-09-11T16:43:55.585Z,0.35
2022-09-11T16:46:25.985Z,0.60
2022-09-11T16:48:56.905Z,0.88
2022-09-11T16:51:28.187Z,0.73
2022-09-11T16:53:56.559Z,0.40
2022-09-11T16:56:25.967Z,1.05
2022-09-11T16:58:54.733Z,0.40
2022-09-11T17:01:23.996Z,0.50
2022-09-11T17:03:55.497Z,0.77
2022-09-11T17:06:24.377Z,0.60
2022-09-11T17:08:53.049Z,0.50
2022-09-11T17:11:22.992Z,0.60
2022-09-11T17:13:51.508Z,0.55
2022-09-11T17:16:21.380Z,0.52
2022-09-11T17:18:50.039Z,0.65
2022-09-11T17:21:19.746Z,0.55
2022-09-11T17:23:48.215Z,0.60
2022-09-11T17:26:17.865Z,0.60
2022-09-11T17:28:47.236Z,0.70
2022-09-11T17:31:16.617Z,0.60
2022-09-11T17:33:45.477Z,0.60
2022-09-11T17:36:14.835Z,0.93
2022-09-11T17:38:44.890Z,0.50
2022-09-11T17:41:15.161Z,0.50
2022-09-11T17:43:44.311Z,0.77
2022-09-11T17:46:14.955Z,0.98
2022-09-11T17:48:43.875Z,0.88
2022-09-11T17:51:13.710Z,0.50
2022-09-11T17:53:44.167Z,0.80
2022-09-11T17:56:15.187Z,0.73
2022-09-11T17:58:45.161Z,0.50
2022-09-11T18:01:16.760Z,0.60
2022-09-11T18:03:45.950Z,0.63
2022-09-11T18:06:19.215Z,0.40
2022-09-11T18:08:47.559Z,0.70
2022-09-11T18:11:17.250Z,0.80
2022-09-11T18:13:45.664Z,0.80
2022-09-11T18:16:14.061Z,0.65
2022-09-11T18:18:43.403Z,0.93
2022-09-11T18:21:12.338Z,0.57
2022-09-11T18:23:42.524Z,0.50
2022-09-11T18:26:11.234Z,0.45
2022-09-11T18:28:40.835Z,0.70
2022-09-11T18:31:09.862Z,0.50
2022-09-11T18:33:38.395Z,0.30
2022-09-11T18:36:10.323Z,0.70
2022-09-11T18:38:38.611Z,0.40
2022-09-11T18:41:09.924Z,0.73
2022-09-11T18:43:38.402Z,0.50
2022-09-11T18:46:10.824Z,1.00
2022-09-11T18:48:41.090Z,0.52
2022-09-11T18:51:10.065Z,0.70
2022-09-11T18:53:38.663Z,0.55
2022-09-11T18:56:11.234Z,0.38
2022-09-11T18:58:40.314Z,0.77
2022-09-11T19:01:09.021Z,0.90
2022-09-11T19:03:40.427Z,0.57
2022-09-11T19:06:09.910Z,0.70
2022-09-11T19:08:38.657Z,0.75
2022-09-11T19:11:10.618Z,0.50
2022-09-11T19:13:39.143Z,0.75
2022-09-11T19:16:10.777Z,0.50
2022-09-11T19:18:40.907Z,1.05
2022-09-11T19:21:11.632Z,0.68
2022-09-11T19:23:40.814Z,0.80
2022-09-11T19:26:11.554Z,0.50
2022-09-11T19:28:41.078Z,0.70
2022-09-11T19:31:10.020Z,0.55
2022-09-11T19:33:40.344Z,0.93
2022-09-11T19:36:10.782Z,1.60
2022-09-11T19:38:41.088Z,1.75
2022-09-11T19:41:09.761Z,2.25
2022-09-11T19:43:39.342Z,2.35
2022-09-11T19:46:09.184Z,2.10
2022-09-11T19:48:38.883Z,2.00
2022-09-11T19:51:10.092Z,2.15
2022-09-11T19:53:39.125Z,1.95
2022-09-11T19:56:07.900Z,1.88
2022-09-11T19:58:36.945Z,2.45
2022-09-11T20:01:09.956Z,1.73
2022-09-11T20:03:38.506Z,1.35
2022-09-11T20:06:11.652Z,1.35
2022-09-11T20:08:40.246Z,1.20
2022-09-11T20:11:08.961Z,0.90
2022-09-11T20:13:37.447Z,0.80
2022-09-11T20:16:09.878Z,0.55
2022-09-11T20:18:38.413Z,0.70
2022-09-11T20:21:11.620Z,0.80
2022-09-11T20:23:40.299Z,0.90
2022-09-11T20:26:12.543Z,0.47
2022-09-11T20:28:43.561Z,0.70
2022-09-11T20:31:15.646Z,0.68
2022-09-11T20:33:44.212Z,0.52
2022-09-11T20:36:14.434Z,0.82
2022-09-11T20:38:42.877Z,0.55
2022-09-11T20:41:12.591Z,0.80
2022-09-11T20:43:41.088Z,0.43
2022-09-11T20:46:09.713Z,0.85
2022-09-11T20:48:38.245Z,0.57
2022-09-11T20:51:10.054Z,0.70
2022-09-11T20:53:41.651Z,0.45
2022-09-11T20:56:11.247Z,0.30
2022-09-11T20:58:39.967Z,0.32
2022-09-11T21:01:09.273Z,0.43
2022-09-11T21:03:38.087Z,0.65
2022-09-11T21:06:10.397Z,0.80
2022-09-11T21:08:42.114Z,0.75
2022-09-11T21:11:11.122Z,0.73
2022-09-11T21:13:39.935Z,0.77
2022-09-11T21:16:09.235Z,0.73
2022-09-11T21:18:37.610Z,1.15
2022-09-11T21:21:09.156Z,0.70
2022-09-11T21:23:37.430Z,0.60
2022-09-11T21:26:09.902Z,0.50
2022-09-11T21:28:38.391Z,0.73
2022-09-11T21:31:09.761Z,0.57
2022-09-11T21:33:38.559Z,0.63
2022-09-11T21:36:10.028Z,0.38
2022-09-11T21:38:38.804Z,0.57
2022-09-11T21:41:09.116Z,0.50
2022-09-11T21:43:39.269Z,0.52
2022-09-11T21:46:08.781Z,0.30
2022-09-11T21:48:37.508Z,0.65
2022-09-11T21:51:09.731Z,0.43
2022-09-11T21:53:38.144Z,0.50
2022-09-11T21:56:17.029Z,0.68
2022-09-11T21:58:46.647Z,0.65
2022-09-11T22:01:14.989Z,0.77
2022-09-11T22:03:43.368Z,0.75
2022-09-11T22:06:12.319Z,0.52
2022-09-11T22:08:41.210Z,0.40
2022-09-11T22:11:09.505Z,0.65
2022-09-11T22:13:38.347Z,0.68
2022-09-11T22:16:12.283Z,0.70
2022-09-11T22:18:41.769Z,0.40
2022-09-11T22:21:10.550Z,0.55
2022-09-11T22:23:38.817Z,0.77
2022-09-11T22:26:11.125Z,0.82
2022-09-11T22:28:39.941Z,0.70
2022-09-11T22:31:08.928Z,0.50
2022-09-11T22:33:39.666Z,0.52
2022-09-11T22:36:12.456Z,0.50
2022-09-11T22:38:40.741Z,0.43
2022-09-11T22:41:09.412Z,0.57
2022-09-11T22:43:37.847Z,0.50
2022-09-11T22:46:08.962Z,0.20
2022-09-11T22:48:38.658Z,0.70
2022-09-11T22:51:10.104Z,0.45
2022-09-11T22:53:39.495Z,0.57
2022-09-11T22:56:09.363Z,0.30
2022-09-11T22:58:38.355Z,0.40
2022-09-11T23:01:11.170Z,0.45
2022-09-11T23:03:40.923Z,0.40
2022-09-11T23:06:27.163Z,0.30
2022-09-11T23:08:56.038Z,0.77
2022-09-11T23:11:25.116Z,0.43
2022-09-11T23:13:53.419Z,0.80
2022-09-11T23:16:22.930Z,0.40
2022-09-11T23:18:56.040Z,0.47
2022-09-11T23:21:24.660Z,0.85
2022-09-11T23:23:54.662Z,0.32
2022-09-11T23:26:23.554Z,0.30
2022-09-11T23:28:51.828Z,0.40
2022-09-11T23:31:21.574Z,0.40
2022-09-11T23:33:50.280Z,0.47
2022-09-11T23:36:19.883Z,0.52
2022-09-11T23:38:48.500Z,0.50
2022-09-11T23:41:16.778Z,0.55
2022-09-11T23:43:45.246Z,0.35
2022-09-11T23:46:13.705Z,0.40
2022-09-11T23:48:42.018Z,0.77
2022-09-11T23:51:10.832Z,0.45
2022-09-11T23:53:40.990Z,0.80
2022-09-11T23:56:10.469Z,0.35
2022-09-11T23:58:40.242Z,0.75
